createdAt,value
2022-10-31T00:00:13.724Z,99.00
2022-10-31T00:02:22.405Z,99.00
2022-10-31T00:04:29.300Z,99.30
2022-10-31T00:06:36.196Z,99.40
2022-10-31T00:08:43.103Z,99.20
2022-10-31T00:10:50.785Z,99.30
2022-10-31T00:12:57.847Z,99.30
2022-10-31T00:15:06.914Z,98.90
2022-10-31T00:17:13.787Z,98.70
2022-10-31T00:19:20.763Z,98.20
2022-10-31T00:21:28.128Z,98.10
2022-10-31T00:23:35.022Z,97.90
2022-10-31T00:25:42.877Z,97.60
2022-10-31T00:27:50.049Z,97.40
2022-10-31T00:29:57.280Z,97.30
2022-10-31T00:32:05.900Z,97.20
2022-10-31T00:34:12.653Z,97.00
2022-10-31T00:36:21.781Z,96.90
2022-10-31T00:38:28.543Z,96.70
2022-10-31T00:40:35.272Z,96.20
2022-10-31T00:42:43.672Z,96.10
2022-10-31T00:44:50.599Z,95.90
2022-10-31T00:46:57.481Z,95.70
2022-10-31T00:49:06.673Z,95.50
2022-10-31T00:51:14.259Z,95.40
2022-10-31T00:53:21.763Z,95.60
2022-10-31T00:55:28.588Z,94.70
2022-10-31T00:57:35.362Z,94.80
2022-10-31T00:59:44.322Z,93.60
2022-10-31T01:01:51.436Z,92.80
2022-10-31T01:03:58.634Z,92.20
2022-10-31T01:06:10.561Z,91.90
2022-10-31T01:08:17.698Z,92.80
2022-10-31T01:10:24.591Z,92.60
2022-10-31T01:12:32.045Z,90.60
2022-10-31T01:14:39.011Z,91.00
2022-10-31T01:16:45.925Z,90.30
2022-10-31T01:18:54.975Z,90.00
2022-10-31T01:21:11.427Z,90.80
2022-10-31T01:23:18.210Z,90.70
2022-10-31T01:25:25.070Z,90.20
2022-10-31T01:27:32.072Z,89.90
2022-10-31T01:29:39.338Z,89.80
2022-10-31T01:31:46.391Z,89.20
2022-10-31T01:33:54.853Z,87.80
2022-10-31T01:36:01.678Z,87.00
2022-10-31T01:38:10.196Z,86.30
2022-10-31T01:40:17.174Z,85.90
2022-10-31T01:42:25.957Z,84.50
2022-10-31T01:44:58.600Z,84.70
2022-10-31T01:47:11.973Z,84.50
2022-10-31T01:49:21.529Z,84.10
2022-10-31T01:51:32.878Z,84.40
2022-10-31T01:53:42.641Z,83.70
2022-10-31T01:55:50.675Z,83.00
2022-10-31T01:58:02.063Z,82.20
2022-10-31T02:00:10.566Z,82.10
2022-10-31T02:02:22.025Z,81.40
2022-10-31T02:04:30.415Z,81.60
2022-10-31T02:06:42.854Z,82.00
2022-10-31T02:08:54.584Z,79.40
2022-10-31T02:11:03.367Z,79.70
2022-10-31T02:13:12.186Z,79.90
2022-10-31T02:15:24.912Z,79.50
2022-10-31T02:17:35.452Z,79.70
2022-10-31T02:19:50.213Z,79.90
2022-10-31T02:22:05.094Z,77.80
2022-10-31T02:24:55.749Z,77.10
2022-10-31T02:27:32.709Z,77.40
2022-10-31T02:30:09.208Z,77.70
2022-10-31T02:32:24.440Z,77.40
2022-10-31T02:34:40.513Z,78.60
2022-10-31T02:36:56.412Z,77.80
2022-10-31T02:39:13.570Z,77.90
2022-10-31T02:41:30.813Z,77.70
2022-10-31T02:43:51.475Z,77.80
2022-10-31T02:46:08.575Z,76.90
2022-10-31T02:48:22.519Z,76.20
2022-10-31T02:50:34.035Z,73.80
2022-10-31T02:52:42.801Z,74.70
2022-10-31T02:54:50.786Z,74.40
2022-10-31T02:57:03.530Z,73.80
2022-10-31T02:59:11.401Z,73.70
2022-10-31T03:01:51.646Z,74.00
2022-10-31T03:04:27.243Z,74.00
2022-10-31T03:06:39.250Z,72.80
2022-10-31T03:08:47.875Z,73.60
2022-10-31T03:10:59.543Z,73.50
2022-10-31T03:13:13.557Z,73.50
2022-10-31T03:15:27.120Z,73.40
2022-10-31T03:17:40.502Z,73.70
2022-10-31T03:19:51.063Z,73.60
2022-10-31T03:22:03.469Z,73.40
2022-10-31T03:24:12.696Z,72.60
2022-10-31T03:26:21.851Z,71.20
2022-10-31T03:28:33.458Z,71.80
2022-10-31T03:30:43.479Z,71.40
2022-10-31T03:32:55.425Z,72.10
2022-10-31T03:35:04.013Z,71.40
2022-10-31T03:37:15.513Z,68.70
2022-10-31T03:39:25.447Z,68.10
2022-10-31T03:41:37.331Z,68.90
2022-10-31T03:43:50.159Z,68.80
2022-10-31T03:45:57.624Z,68.80
2022-10-31T03:48:04.876Z,67.70
2022-10-31T03:50:15.440Z,67.60
2022-10-31T03:52:31.479Z,66.20
2022-10-31T03:54:45.970Z,66.90
2022-10-31T03:56:57.497Z,66.90
2022-10-31T03:59:06.740Z,65.60
2022-10-31T04:01:19.417Z,66.20
2022-10-31T04:03:30.467Z,63.50
2022-10-31T04:05:41.203Z,63.60
2022-10-31T04:07:53.778Z,63.20
2022-10-31T04:10:04.328Z,64.00
2022-10-31T04:12:12.791Z,63.70
2022-10-31T04:14:36.910Z,63.30
2022-10-31T04:16:45.952Z,64.70
2022-10-31T04:18:53.102Z,63.90
2022-10-31T04:21:08.070Z,63.80
2022-10-31T04:23:23.124Z,61.90
2022-10-31T04:25:31.028Z,61.80
2022-10-31T04:27:39.754Z,61.40
2022-10-31T04:29:50.813Z,61.00
2022-10-31T04:31:58.796Z,61.30
2022-10-31T04:34:05.835Z,61.20
2022-10-31T04:36:13.580Z,60.50
2022-10-31T04:38:22.191Z,60.70
2022-10-31T04:40:30.269Z,59.00
2022-10-31T04:42:57.002Z,57.70
2022-10-31T04:45:04.318Z,57.90
2022-10-31T04:47:12.833Z,59.20
2022-10-31T04:49:19.668Z,59.60
2022-10-31T04:51:26.637Z,59.40
2022-10-31T04:53:35.437Z,57.60
2022-10-31T04:55:54.562Z,57.40
2022-10-31T04:58:04.592Z,59.30
2022-10-31T05:00:14.240Z,58.20
2022-10-31T05:02:21.164Z,59.20
2022-10-31T05:04:34.783Z,58.00
2022-10-31T05:06:42.719Z,56.50
2022-10-31T05:08:51.364Z,56.90
2022-10-31T05:11:03.178Z,57.20
2022-10-31T05:13:11.830Z,57.50
2022-10-31T05:15:32.261Z,56.90
2022-10-31T05:17:51.752Z,55.90
2022-10-31T05:20:11.525Z,57.70
2022-10-31T05:22:30.637Z,58.50
2022-10-31T05:24:39.682Z,58.40
2022-10-31T05:26:50.174Z,58.10
2022-10-31T05:28:57.609Z,58.60
2022-10-31T05:31:04.387Z,58.10
2022-10-31T05:33:12.070Z,59.30
2022-10-31T05:35:20.824Z,58.70
2022-10-31T05:37:39.887Z,59.00
2022-10-31T05:39:48.371Z,58.60
2022-10-31T05:41:57.390Z,57.70
2022-10-31T05:44:07.238Z,56.90
2022-10-31T05:46:26.856Z,57.90
2022-10-31T05:48:54.671Z,56.80
2022-10-31T05:51:21.882Z,56.80
2022-10-31T05:53:28.697Z,56.20
2022-10-31T05:55:37.433Z,57.30
2022-10-31T05:57:49.496Z,56.10
2022-10-31T05:59:56.868Z,56.40
2022-10-31T06:02:06.375Z,55.30
2022-10-31T06:04:25.774Z,55.60
2022-10-31T06:06:32.819Z,55.10
2022-10-31T06:08:40.538Z,53.90
2022-10-31T06:10:55.739Z,54.50
2022-10-31T06:13:22.815Z,53.60
2022-10-31T06:15:41.670Z,55.00
2022-10-31T06:17:48.908Z,55.30
2022-10-31T06:20:03.975Z,56.20
2022-10-31T06:22:14.604Z,54.20
2022-10-31T06:24:23.206Z,54.60
2022-10-31T06:26:44.824Z,54.90
2022-10-31T06:28:51.869Z,55.50
2022-10-31T06:31:18.358Z,55.50
2022-10-31T06:33:25.652Z,55.60
2022-10-31T06:35:37.792Z,55.60
2022-10-31T06:37:46.853Z,56.90
2022-10-31T06:40:09.950Z,57.20
2022-10-31T06:42:38.168Z,57.70
2022-10-31T06:44:45.130Z,58.50
2022-10-31T06:47:04.444Z,55.90
2022-10-31T06:49:17.542Z,56.10
2022-10-31T06:51:34.039Z,56.30
2022-10-31T06:53:40.829Z,55.90
2022-10-31T06:55:49.341Z,55.80
2022-10-31T06:58:02.991Z,56.90
2022-10-31T07:00:12.804Z,57.40
2022-10-31T07:02:23.630Z,57.50
2022-10-31T07:04:31.364Z,57.60
2022-10-31T07:06:38.239Z,56.90
2022-10-31T07:08:45.183Z,56.50
2022-10-31T07:10:57.577Z,56.00
2022-10-31T07:13:07.082Z,55.50
2022-10-31T07:15:16.875Z,55.60
2022-10-31T07:17:29.869Z,56.70
2022-10-31T07:19:39.895Z,56.10
2022-10-31T07:21:46.736Z,56.30
2022-10-31T07:23:55.515Z,56.10
2022-10-31T07:26:21.882Z,55.20
2022-10-31T07:28:31.156Z,55.40
2022-10-31T07:30:42.023Z,55.10
2022-10-31T07:32:50.623Z,54.80
2022-10-31T07:34:58.855Z,55.50
2022-10-31T07:37:13.751Z,55.40
2022-10-31T07:39:20.902Z,56.00
2022-10-31T07:41:27.856Z,55.40
2022-10-31T07:43:36.861Z,55.10
2022-10-31T07:45:54.829Z,54.80
2022-10-31T07:48:14.093Z,54.60
2022-10-31T07:50:41.181Z,55.00
2022-10-31T07:53:07.299Z,54.90
2022-10-31T07:55:26.403Z,55.10
2022-10-31T07:57:38.570Z,55.00
2022-10-31T07:59:48.546Z,55.10
2022-10-31T08:01:57.560Z,55.10
2022-10-31T08:04:24.250Z,55.20
2022-10-31T08:06:43.222Z,55.00
2022-10-31T08:09:06.085Z,55.80
2022-10-31T08:11:13.342Z,56.40
2022-10-31T08:13:20.193Z,56.70
2022-10-31T08:15:32.403Z,57.00
2022-10-31T08:17:40.873Z,56.60
2022-10-31T08:19:50.521Z,56.20
2022-10-31T08:22:00.181Z,56.40
2022-10-31T08:24:07.805Z,56.50
2022-10-31T08:26:14.710Z,56.50
2022-10-31T08:28:23.219Z,57.00
2022-10-31T08:30:35.554Z,57.30
2022-10-31T08:33:05.271Z,57.00
2022-10-31T08:35:24.354Z,57.70
2022-10-31T08:37:58.125Z,58.20
2022-10-31T08:40:07.314Z,58.20
2022-10-31T08:42:15.146Z,58.30
2022-10-31T08:44:21.914Z,58.20
2022-10-31T08:46:30.888Z,58.50
2022-10-31T08:48:38.486Z,58.70
2022-10-31T08:50:49.046Z,58.80
2022-10-31T08:53:10.536Z,59.10
2022-10-31T08:55:19.795Z,59.20
2022-10-31T08:57:35.938Z,59.10
2022-10-31T08:59:42.987Z,59.30
2022-10-31T09:02:03.734Z,59.90
2022-10-31T09:04:10.811Z,59.50
2022-10-31T09:06:18.325Z,60.00
2022-10-31T09:08:28.322Z,60.10
2022-10-31T09:10:36.661Z,59.90
2022-10-31T09:12:43.633Z,60.90
2022-10-31T09:15:03.883Z,60.90
2022-10-31T09:17:18.686Z,61.10
2022-10-31T09:19:45.181Z,60.60
2022-10-31T09:21:55.549Z,60.40
2022-10-31T09:24:02.552Z,60.70
2022-10-31T09:26:10.015Z,61.10
2022-10-31T09:28:22.818Z,61.10
2022-10-31T09:30:30.624Z,61.20
2022-10-31T09:32:39.288Z,61.20
2022-10-31T09:34:46.208Z,61.10
2022-10-31T09:36:58.042Z,61.10
2022-10-31T09:39:04.807Z,61.40
2022-10-31T09:41:32.978Z,61.30
2022-10-31T09:43:51.446Z,60.80
2022-10-31T09:46:04.267Z,61.30
2022-10-31T09:48:39.822Z,61.80
2022-10-31T09:50:59.080Z,62.30
2022-10-31T09:53:19.236Z,62.80
2022-10-31T09:55:35.394Z,63.10
2022-10-31T09:57:43.880Z,63.50
2022-10-31T09:59:53.320Z,63.50
2022-10-31T10:02:05.592Z,63.90
2022-10-31T10:04:29.203Z,64.10
2022-10-31T10:06:51.557Z,63.90
2022-10-31T10:09:11.220Z,63.70
2022-10-31T10:11:41.712Z,63.60
2022-10-31T10:14:07.864Z,64.00
2022-10-31T10:16:26.049Z,64.00
2022-10-31T10:18:43.542Z,64.20
2022-10-31T10:21:04.811Z,64.40
2022-10-31T10:23:38.669Z,64.30
2022-10-31T10:25:48.114Z,63.90
2022-10-31T10:28:21.760Z,64.30
2022-10-31T10:30:37.210Z,64.00
2022-10-31T10:32:52.115Z,64.10
2022-10-31T10:35:03.547Z,64.10
2022-10-31T10:37:21.943Z,64.20
2022-10-31T10:39:33.713Z,64.60
2022-10-31T10:41:40.525Z,64.80
2022-10-31T10:46:40.245Z,65.20
2022-10-31T10:48:48.833Z,65.30
2022-10-31T10:50:56.595Z,65.90
2022-10-31T10:53:11.175Z,66.30
2022-10-31T10:55:27.617Z,67.40
2022-10-31T10:57:47.186Z,68.40
2022-10-31T10:59:55.194Z,68.90
2022-10-31T11:02:03.834Z,68.80
2022-10-31T11:04:33.615Z,69.80
2022-10-31T11:06:40.727Z,70.20
2022-10-31T11:08:49.339Z,69.70
2022-10-31T11:11:06.497Z,69.90
2022-10-31T11:13:26.641Z,70.40
2022-10-31T11:15:38.760Z,72.50
2022-10-31T11:17:46.182Z,71.80
2022-10-31T11:20:03.283Z,72.00
2022-10-31T11:22:19.047Z,72.90
2022-10-31T11:24:29.430Z,73.20
2022-10-31T11:26:37.243Z,73.40
2022-10-31T11:28:44.052Z,72.90
2022-10-31T11:30:51.731Z,73.00
2022-10-31T11:32:59.182Z,73.50
2022-10-31T11:35:13.566Z,73.40
2022-10-31T11:37:24.232Z,73.70
2022-10-31T11:39:33.406Z,74.00
2022-10-31T11:41:41.797Z,75.00
2022-10-31T11:43:53.728Z,75.50
2022-10-31T11:46:01.580Z,76.70
2022-10-31T11:48:20.809Z,76.50
2022-10-31T11:50:31.197Z,77.30
2022-10-31T11:52:39.541Z,77.80
2022-10-31T11:54:53.204Z,78.40
2022-10-31T11:57:00.522Z,78.30
2022-10-31T11:59:08.920Z,79.00
2022-10-31T12:01:29.092Z,79.50
2022-10-31T12:03:50.747Z,80.10
2022-10-31T12:06:02.408Z,80.20
2022-10-31T12:08:11.178Z,79.90
2022-10-31T12:10:20.308Z,80.60
2022-10-31T12:12:50.531Z,80.80
2022-10-31T12:15:07.067Z,81.50
2022-10-31T12:17:18.933Z,80.60
2022-10-31T12:19:35.603Z,80.60
2022-10-31T12:22:15.446Z,80.60
2022-10-31T12:24:35.125Z,81.20
2022-10-31T12:26:50.872Z,80.80
2022-10-31T12:29:15.908Z,80.70
2022-10-31T12:31:38.303Z,81.70
2022-10-31T12:33:56.124Z,81.30
2022-10-31T12:36:28.764Z,81.40
2022-10-31T12:38:50.586Z,81.40
2022-10-31T12:41:21.989Z,81.50
2022-10-31T12:43:43.800Z,82.60
2022-10-31T12:45:56.499Z,82.90
2022-10-31T12:48:26.134Z,83.70
2022-10-31T12:50:46.190Z,83.00
2022-10-31T12:53:01.700Z,83.00
2022-10-31T12:55:21.703Z,83.20
2022-10-31T12:57:33.993Z,82.90
2022-10-31T12:59:47.763Z,83.10
2022-10-31T13:01:58.779Z,83.60
2022-10-31T13:04:09.883Z,83.40
2022-10-31T13:06:21.547Z,83.80
2022-10-31T13:08:34.718Z,84.20
2022-10-31T13:10:47.679Z,84.30
2022-10-31T13:12:59.703Z,84.40
2022-10-31T13:15:16.876Z,84.30
2022-10-31T13:17:30.148Z,84.10
2022-10-31T13:19:40.118Z,84.10
2022-10-31T13:21:55.716Z,84.60
2022-10-31T13:24:06.725Z,85.10
2022-10-31T13:26:16.200Z,85.00
2022-10-31T13:28:32.980Z,85.30
2022-10-31T13:30:44.225Z,85.40
2022-10-31T13:32:57.030Z,85.50
2022-10-31T13:35:04.826Z,85.30
2022-10-31T13:37:32.201Z,85.20
2022-10-31T13:39:55.131Z,85.20
2022-10-31T13:42:08.469Z,85.00
2022-10-31T13:44:27.498Z,85.00
2022-10-31T13:46:46.792Z,85.70
2022-10-31T13:48:53.549Z,86.20
2022-10-31T13:51:02.011Z,86.20
2022-10-31T13:53:17.710Z,86.60
2022-10-31T13:55:46.815Z,86.20
2022-10-31T13:57:53.957Z,86.40
2022-10-31T14:00:02.865Z,86.30
2022-10-31T14:02:22.310Z,86.20
2022-10-31T14:04:32.960Z,86.40
2022-10-31T14:06:49.850Z,86.50
2022-10-31T14:08:57.051Z,86.80
2022-10-31T14:11:04.120Z,86.60
2022-10-31T14:13:18.316Z,86.80
2022-10-31T14:15:27.657Z,86.90
2022-10-31T14:17:43.247Z,86.90
2022-10-31T14:20:05.210Z,86.80
2022-10-31T14:22:25.206Z,86.80
2022-10-31T14:24:38.436Z,86.70
2022-10-31T14:26:55.091Z,86.80
2022-10-31T14:29:03.572Z,86.90
2022-10-31T14:31:38.460Z,86.90
2022-10-31T14:33:48.002Z,86.80
2022-10-31T14:36:01.848Z,86.80
2022-10-31T14:38:31.620Z,86.90
2022-10-31T14:40:54.248Z,87.10
2022-10-31T14:43:22.142Z,87.30
2022-10-31T14:45:38.602Z,87.40
2022-10-31T14:47:52.421Z,87.60
2022-10-31T14:50:24.518Z,88.00
2022-10-31T14:52:31.556Z,88.30
2022-10-31T14:54:42.140Z,88.30
2022-10-31T14:56:59.726Z,88.30
2022-10-31T14:59:11.296Z,88.30
2022-10-31T15:01:26.559Z,88.70
2022-10-31T15:03:37.569Z,88.90
2022-10-31T15:05:53.308Z,89.10
2022-10-31T15:08:01.845Z,89.40
2022-10-31T15:10:22.764Z,89.60
2022-10-31T15:12:31.513Z,89.60
2022-10-31T15:14:38.573Z,89.80
2022-10-31T15:16:47.297Z,89.70
2022-10-31T15:18:59.367Z,90.00
2022-10-31T15:21:09.982Z,90.30
2022-10-31T15:23:24.798Z,90.20
2022-10-31T15:25:36.948Z,90.30
2022-10-31T15:27:45.863Z,90.50
2022-10-31T15:29:53.907Z,90.70
2022-10-31T15:32:01.922Z,90.70
2022-10-31T15:34:16.782Z,90.90
2022-10-31T15:36:29.243Z,91.20
2022-10-31T15:38:38.266Z,91.50
2022-10-31T15:40:58.487Z,91.70
2022-10-31T15:43:08.783Z,91.80
2022-10-31T15:45:24.234Z,91.70
2022-10-31T15:47:34.368Z,91.90
2022-10-31T15:49:43.893Z,91.80
2022-10-31T15:51:54.577Z,91.50
2022-10-31T15:54:03.616Z,91.30
2022-10-31T15:56:12.861Z,91.60
2022-10-31T15:58:21.614Z,91.30
2022-10-31T16:00:31.137Z,91.50
2022-10-31T16:02:38.286Z,91.30
2022-10-31T16:04:54.697Z,90.80
2022-10-31T16:07:07.463Z,90.40
2022-10-31T16:09:26.538Z,90.00
2022-10-31T16:11:39.858Z,90.10
2022-10-31T16:13:56.507Z,89.10
2022-10-31T16:18:39.176Z,88.10
2022-10-31T16:20:54.573Z,87.40
2022-10-31T16:23:04.330Z,86.80
2022-10-31T16:25:16.430Z,86.30
2022-10-31T16:27:28.933Z,86.20
2022-10-31T16:29:42.278Z,86.20
2022-10-31T16:31:49.164Z,86.10
2022-10-31T16:34:07.373Z,85.90
2022-10-31T16:36:36.185Z,85.60
2022-10-31T16:38:44.975Z,85.40
2022-10-31T16:40:52.386Z,84.80
2022-10-31T16:43:02.013Z,84.40
2022-10-31T16:45:11.438Z,84.10
2022-10-31T16:47:24.630Z,83.70
2022-10-31T16:49:34.395Z,83.00
2022-10-31T16:51:41.163Z,82.70
2022-10-31T16:53:49.803Z,82.40
2022-10-31T16:56:00.772Z,82.20
2022-10-31T16:58:07.640Z,81.80
2022-10-31T17:00:18.654Z,81.60
2022-10-31T17:02:26.190Z,81.50
2022-10-31T17:04:33.650Z,81.30
2022-10-31T17:06:40.432Z,80.90
2022-10-31T17:08:49.201Z,80.50
2022-10-31T17:10:57.762Z,80.40
2022-10-31T17:13:07.973Z,80.30
2022-10-31T17:15:21.075Z,79.50
2022-10-31T17:17:28.107Z,79.30
2022-10-31T17:19:35.918Z,79.20
2022-10-31T17:21:43.381Z,78.90
2022-10-31T17:23:57.710Z,78.80
2022-10-31T17:26:04.570Z,78.50
2022-10-31T17:28:14.345Z,78.50
2022-10-31T17:30:21.993Z,78.30
2022-10-31T17:32:28.843Z,78.20
2022-10-31T17:34:36.097Z,77.90
2022-10-31T17:36:42.976Z,77.50
2022-10-31T17:38:49.976Z,77.60
2022-10-31T17:40:58.602Z,77.40
2022-10-31T17:43:05.338Z,77.50
2022-10-31T17:45:14.257Z,77.20
2022-10-31T17:47:21.387Z,77.00
2022-10-31T17:49:28.217Z,77.30
2022-10-31T17:51:35.528Z,77.40
2022-10-31T17:53:42.402Z,77.40
2022-10-31T17:55:49.381Z,77.30
2022-10-31T17:57:57.970Z,77.50
2022-10-31T18:00:05.501Z,77.70
2022-10-31T18:02:13.662Z,78.00
2022-10-31T18:04:21.049Z,78.30
2022-10-31T18:06:28.021Z,78.60
2022-10-31T18:08:36.306Z,78.50
2022-10-31T18:10:43.594Z,78.60
2022-10-31T18:12:50.904Z,78.40
2022-10-31T18:14:59.348Z,78.60
2022-10-31T18:17:06.148Z,78.90
2022-10-31T18:19:17.154Z,78.70
2022-10-31T18:21:24.255Z,79.50
2022-10-31T18:23:31.159Z,79.70
2022-10-31T18:25:39.815Z,79.90
2022-10-31T18:27:46.681Z,80.10
2022-10-31T18:29:53.787Z,80.30
2022-10-31T18:32:06.810Z,80.00
2022-10-31T18:34:16.192Z,80.30
2022-10-31T18:36:23.253Z,80.70
2022-10-31T18:38:30.423Z,81.20
2022-10-31T18:40:38.165Z,81.50
2022-10-31T18:42:45.717Z,82.10
2022-10-31T18:44:52.581Z,82.00
2022-10-31T18:47:01.219Z,82.20
2022-10-31T18:49:08.698Z,82.90
2022-10-31T18:51:19.134Z,83.00
2022-10-31T18:53:26.088Z,83.20
2022-10-31T18:55:33.434Z,82.80
2022-10-31T18:57:40.514Z,82.90
2022-10-31T18:59:47.637Z,83.90
2022-10-31T19:01:54.583Z,84.20
2022-10-31T19:04:03.609Z,84.80
2022-10-31T19:06:10.825Z,85.20
2022-10-31T19:08:18.263Z,85.30
2022-10-31T19:10:25.143Z,85.40
2022-10-31T19:12:34.233Z,85.50
2022-10-31T19:14:41.218Z,85.90
2022-10-31T19:16:50.911Z,86.20
2022-10-31T19:19:00.903Z,85.90
2022-10-31T19:21:12.455Z,85.80
2022-10-31T19:23:19.371Z,86.10
2022-10-31T19:25:26.238Z,86.20
2022-10-31T19:27:33.103Z,86.40
2022-10-31T19:29:40.938Z,86.50
2022-10-31T19:31:49.146Z,86.80
2022-10-31T19:33:56.099Z,87.20
2022-10-31T19:36:09.186Z,87.30
2022-10-31T19:38:18.090Z,87.30
2022-10-31T19:40:25.020Z,87.40
2022-10-31T19:42:31.997Z,87.20
2022-10-31T19:44:38.799Z,87.50
2022-10-31T19:46:54.125Z,87.60
2022-10-31T19:49:02.115Z,87.50
2022-10-31T19:51:10.560Z,87.30
2022-10-31T19:53:19.030Z,87.40
2022-10-31T19:55:25.949Z,87.60
2022-10-31T19:57:56.299Z,87.40
2022-10-31T19:59:59.731Z,87.70
2022-10-31T20:02:06.618Z,87.70
2022-10-31T20:04:13.764Z,87.70
2022-10-31T20:06:24.598Z,87.80
2022-10-31T20:08:38.483Z,87.70
2022-10-31T20:10:56.180Z,87.70
2022-10-31T20:13:03.537Z,88.00
2022-10-31T20:15:11.417Z,88.00
2022-10-31T20:17:18.335Z,88.00
2022-10-31T20:19:25.724Z,88.30
2022-10-31T20:21:33.572Z,88.60
2022-10-31T20:23:42.914Z,88.70
2022-10-31T20:25:53.314Z,88.60
2022-10-31T20:28:01.230Z,88.70
2022-10-31T20:30:08.743Z,88.90
2022-10-31T20:32:15.919Z,89.20
2022-10-31T20:34:22.756Z,89.30
2022-10-31T20:36:30.583Z,89.20
2022-10-31T20:38:40.017Z,89.40
2022-10-31T20:40:48.472Z,89.70
2022-10-31T20:42:55.237Z,89.60
2022-10-31T20:45:02.022Z,89.40
2022-10-31T20:47:09.418Z,89.70
2022-10-31T20:49:16.956Z,89.70
2022-10-31T20:51:25.869Z,89.90
2022-10-31T20:53:33.334Z,90.00
2022-10-31T20:55:40.223Z,90.40
2022-10-31T20:57:49.446Z,90.60
2022-10-31T20:59:56.306Z,90.60
2022-10-31T21:02:03.334Z,90.60
2022-10-31T21:04:12.945Z,90.30
2022-10-31T21:06:21.899Z,90.30
2022-10-31T21:08:30.250Z,90.20
2022-10-31T21:10:37.103Z,90.20
2022-10-31T21:12:44.930Z,90.00
2022-10-31T21:14:53.406Z,89.90
2022-10-31T21:17:00.261Z,90.10
2022-10-31T21:19:08.280Z,90.80
2022-10-31T21:21:16.447Z,91.50
2022-10-31T21:23:23.322Z,91.80
2022-10-31T21:25:30.231Z,92.40
2022-10-31T21:27:37.274Z,93.00
2022-10-31T21:29:44.526Z,93.20
2022-10-31T21:31:53.409Z,93.30
2022-10-31T21:34:00.421Z,93.10
2022-10-31T21:36:07.993Z,92.90
2022-10-31T21:38:16.557Z,93.00
2022-10-31T21:40:23.333Z,92.90
2022-10-31T21:42:30.549Z,92.90
2022-10-31T21:44:37.712Z,92.70
2022-10-31T21:46:45.355Z,92.80
2022-10-31T21:48:54.446Z,93.20
2022-10-31T21:51:04.935Z,93.50
2022-10-31T21:53:24.846Z,93.50
2022-10-31T21:55:32.028Z,93.40
2022-10-31T21:57:39.221Z,93.90
2022-10-31T21:59:49.381Z,93.90
2022-10-31T22:01:59.170Z,93.80
2022-10-31T22:04:08.217Z,93.80
2022-10-31T22:06:16.068Z,93.80
2022-10-31T22:08:22.809Z,93.90
2022-10-31T22:10:29.712Z,93.70
2022-10-31T22:12:37.047Z,93.60
2022-10-31T22:14:44.000Z,93.60
2022-10-31T22:16:51.175Z,93.60
2022-10-31T22:18:58.897Z,93.80
2022-10-31T22:21:08.890Z,94.00
2022-10-31T22:23:15.734Z,94.10
2022-10-31T22:25:22.619Z,94.30
2022-10-31T22:27:29.766Z,94.10
2022-10-31T22:29:38.497Z,94.20
2022-10-31T22:31:48.467Z,94.60
2022-10-31T22:33:57.994Z,94.50
2022-10-31T22:36:07.185Z,94.30
2022-10-31T22:38:14.066Z,94.20
2022-10-31T22:40:21.069Z,94.50
2022-10-31T22:42:27.831Z,94.80
2022-10-31T22:44:34.903Z,95.00
2022-10-31T22:46:42.610Z,95.10
2022-10-31T22:48:50.616Z,95.10
2022-10-31T22:50:57.776Z,95.10
2022-10-31T22:53:06.435Z,95.10
2022-10-31T22:55:13.888Z,94.80
2022-10-31T22:57:20.998Z,94.60
2022-10-31T22:59:28.121Z,94.40
2022-10-31T23:01:36.433Z,94.10
2022-10-31T23:03:43.917Z,93.70
2022-10-31T23:05:58.854Z,93.60
2022-10-31T23:08:07.585Z,93.50
2022-10-31T23:10:14.615Z,93.40
2022-10-31T23:12:49.510Z,93.40
2022-10-31T23:14:56.405Z,93.50
2022-10-31T23:17:03.252Z,93.60
2022-10-31T23:19:11.081Z,93.70
2022-10-31T23:21:33.681Z,94.20
2022-10-31T23:23:42.564Z,94.40
2022-10-31T23:26:05.989Z,94.90
2022-10-31T23:28:12.881Z,95.10
2022-10-31T23:30:19.913Z,95.00
2022-10-31T23:32:30.106Z,95.30
2022-10-31T23:34:36.998Z,95.50
2022-10-31T23:36:44.347Z,95.50
2022-10-31T23:38:53.054Z,95.50
2022-10-31T23:40:59.904Z,95.30
2022-10-31T23:43:07.090Z,95.70
2022-10-31T23:45:14.106Z,96.10
2022-10-31T23:47:23.285Z,96.80
2022-10-31T23:49:30.468Z,96.60
2022-10-31T23:51:37.782Z,96.30
2022-10-31T23:53:47.035Z,96.30
2022-10-31T23:55:58.736Z,96.40
2022-10-31T23:58:05.691Z,96.30
